createdAt,value
2022-10-30T00:01:39.432Z,11.60
2022-10-30T00:06:43.944Z,11.60
2022-10-30T00:11:47.996Z,11.60
2022-10-30T00:16:50.100Z,11.60
2022-10-30T00:21:52.168Z,11.60
2022-10-30T00:26:54.053Z,11.60
2022-10-30T00:31:55.822Z,11.60
2022-10-30T00:36:59.734Z,11.60
2022-10-30T00:42:01.522Z,11.60
2022-10-30T00:47:09.201Z,11.70
2022-10-30T00:52:11.207Z,11.60
2022-10-30T00:57:13.542Z,11.60
2022-10-30T01:02:16.275Z,11.60
2022-10-30T01:07:18.280Z,11.60
2022-10-30T01:12:20.030Z,11.60
2022-10-30T01:17:21.782Z,11.60
2022-10-30T01:22:49.885Z,11.60
2022-10-30T01:28:17.772Z,11.60
2022-10-30T01:33:33.310Z,11.60
2022-10-30T01:39:01.911Z,11.50
2022-10-30T01:44:08.975Z,11.50
2022-10-30T01:49:10.976Z,11.50
2022-10-30T01:54:21.806Z,11.50
2022-10-30T01:59:39.220Z,11.40
2022-10-30T02:04:42.641Z,11.40
2022-10-30T02:09:46.134Z,11.40
2022-10-30T02:14:54.856Z,11.40
2022-10-30T02:19:56.658Z,11.40
2022-10-30T02:24:58.722Z,11.40
2022-10-30T02:30:00.510Z,11.40
2022-10-30T02:35:03.379Z,11.40
2022-10-30T02:40:08.236Z,11.40
2022-10-30T02:45:11.755Z,11.50
2022-10-30T02:50:14.003Z,11.50
2022-10-30T02:55:15.986Z,11.50
2022-10-30T03:00:18.137Z,11.50
2022-10-30T03:05:20.018Z,11.50
2022-10-30T03:10:21.853Z,11.50
2022-10-30T03:15:23.639Z,11.60
2022-10-30T03:20:25.481Z,11.60
2022-10-30T03:25:28.336Z,11.60
2022-10-30T03:30:33.906Z,11.60
2022-10-30T03:35:36.792Z,11.60
2022-10-30T03:40:39.776Z,11.60
2022-10-30T03:45:47.558Z,11.60
2022-10-30T03:50:49.911Z,11.60
2022-10-30T03:55:53.549Z,11.60
2022-10-30T04:01:01.591Z,11.60
2022-10-30T04:06:04.472Z,11.60
2022-10-30T04:11:06.350Z,11.60
2022-10-30T04:16:08.241Z,11.60
2022-10-30T04:21:10.051Z,11.60
2022-10-30T04:26:12.830Z,11.50
2022-10-30T04:31:15.433Z,11.50
2022-10-30T04:36:18.556Z,11.50
2022-10-30T04:41:21.047Z,11.40
2022-10-30T04:46:33.049Z,11.30
2022-10-30T04:51:42.336Z,11.30
2022-10-30T04:56:46.196Z,11.20
2022-10-30T05:01:48.059Z,11.20
2022-10-30T05:06:50.042Z,11.20
2022-10-30T05:11:53.895Z,11.20
2022-10-30T05:16:59.666Z,11.10
2022-10-30T05:22:01.660Z,11.00
2022-10-30T05:27:03.705Z,10.90
2022-10-30T05:32:06.341Z,10.90
2022-10-30T05:37:13.586Z,10.80
2022-10-30T05:42:16.282Z,10.70
2022-10-30T05:47:20.095Z,10.70
2022-10-30T05:52:26.598Z,10.60
2022-10-30T05:57:29.437Z,10.60
2022-10-30T06:02:31.924Z,10.60
2022-10-30T06:07:33.836Z,10.50
2022-10-30T06:12:37.275Z,10.50
2022-10-30T06:17:50.784Z,10.50
2022-10-30T06:22:58.256Z,10.50
2022-10-30T06:28:05.915Z,10.50
2022-10-30T06:33:07.969Z,10.60
2022-10-30T06:38:13.152Z,10.50
2022-10-30T06:43:15.005Z,10.60
2022-10-30T06:48:21.428Z,10.70
2022-10-30T06:53:27.428Z,10.90
2022-10-30T06:58:38.999Z,11.10
2022-10-30T07:03:44.706Z,11.30
2022-10-30T07:08:47.326Z,11.50
2022-10-30T07:13:49.712Z,11.70
2022-10-30T07:19:04.881Z,11.90
2022-10-30T07:24:08.681Z,12.10
2022-10-30T07:29:29.012Z,12.30
2022-10-30T07:34:49.402Z,12.50
2022-10-30T07:39:57.113Z,12.70
2022-10-30T07:45:14.696Z,12.90
2022-10-30T07:50:35.211Z,13.10
2022-10-30T07:55:37.185Z,13.20
2022-10-30T08:00:48.153Z,13.40
2022-10-30T08:06:04.391Z,13.50
2022-10-30T08:11:10.750Z,13.70
2022-10-30T08:16:12.925Z,13.90
2022-10-30T08:21:14.816Z,14.10
2022-10-30T08:26:28.601Z,14.20
2022-10-30T08:31:30.417Z,14.30
2022-10-30T08:36:38.307Z,14.40
2022-10-30T08:41:40.365Z,14.50
2022-10-30T08:46:42.414Z,14.50
2022-10-30T08:51:44.355Z,14.60
2022-10-30T08:56:47.548Z,14.70
2022-10-30T09:01:51.167Z,14.90
2022-10-30T09:06:55.962Z,15.00
2022-10-30T09:12:16.799Z,15.10
2022-10-30T09:17:20.696Z,15.20
2022-10-30T09:22:23.316Z,15.20
2022-10-30T09:27:27.505Z,15.40
2022-10-30T09:32:31.633Z,15.40
2022-10-30T09:37:41.438Z,15.50
2022-10-30T09:42:50.629Z,15.60
2022-10-30T09:48:03.848Z,15.70
2022-10-30T09:53:31.243Z,15.80
2022-10-30T09:58:54.401Z,16.00
2022-10-30T10:04:14.168Z,16.20
2022-10-30T10:09:25.015Z,16.30
2022-10-30T10:14:53.892Z,16.50
2022-10-30T10:19:59.492Z,16.60
2022-10-30T10:25:04.434Z,16.70
2022-10-30T10:30:23.728Z,16.80
2022-10-30T10:35:46.689Z,16.90
2022-10-30T10:40:59.701Z,17.00
2022-10-30T10:46:38.441Z,17.00
2022-10-30T10:51:45.665Z,17.10
2022-10-30T10:56:49.930Z,17.30
2022-10-30T11:02:38.181Z,17.50
2022-10-30T11:07:49.585Z,17.60
2022-10-30T11:12:51.338Z,17.80
2022-10-30T11:18:03.834Z,18.00
2022-10-30T11:23:33.289Z,18.10
2022-10-30T11:28:40.598Z,18.30
2022-10-30T11:33:42.362Z,18.50
2022-10-30T11:38:44.330Z,18.60
2022-10-30T11:43:47.090Z,18.70
2022-10-30T11:48:54.720Z,18.90
2022-10-30T11:53:57.163Z,19.00
2022-10-30T11:59:02.148Z,19.10
2022-10-30T12:04:25.499Z,19.20
2022-10-30T12:09:27.229Z,19.30
2022-10-30T12:14:29.835Z,19.30
2022-10-30T12:19:32.416Z,19.40
2022-10-30T12:24:37.140Z,19.50
2022-10-30T12:30:08.939Z,19.60
2022-10-30T12:35:28.363Z,19.60
2022-10-30T12:40:42.858Z,19.70
2022-10-30T12:45:48.403Z,19.60
2022-10-30T12:51:07.635Z,19.60
2022-10-30T12:56:19.290Z,19.60
2022-10-30T13:01:34.756Z,19.60
2022-10-30T13:06:49.054Z,19.60
2022-10-30T13:12:05.131Z,19.60
2022-10-30T13:17:12.370Z,19.60
2022-10-30T13:22:40.428Z,19.50
2022-10-30T13:27:45.068Z,19.50
2022-10-30T13:33:14.901Z,19.40
2022-10-30T13:38:44.921Z,19.20
2022-10-30T13:49:11.291Z,18.80
2022-10-30T13:54:19.871Z,18.60
2022-10-30T13:59:39.816Z,18.50
2022-10-30T14:04:51.658Z,18.40
2022-10-30T14:10:08.752Z,18.20
2022-10-30T14:15:31.037Z,18.10
2022-10-30T14:20:33.595Z,18.00
2022-10-30T14:25:35.807Z,17.90
2022-10-30T14:30:37.770Z,17.70
2022-10-30T14:35:40.494Z,17.60
2022-10-30T14:40:56.170Z,17.40
2022-10-30T14:46:03.739Z,17.30
2022-10-30T14:51:28.685Z,17.10
2022-10-30T14:56:56.937Z,16.90
2022-10-30T15:02:13.952Z,16.80
2022-10-30T15:07:38.453Z,16.60
2022-10-30T15:12:51.276Z,16.40
2022-10-30T15:17:58.063Z,16.20
2022-10-30T15:23:08.546Z,15.90
2022-10-30T15:28:16.865Z,15.80
2022-10-30T15:33:22.588Z,15.70
2022-10-30T15:38:24.706Z,15.50
2022-10-30T15:43:36.913Z,15.30
2022-10-30T15:48:41.825Z,15.10
2022-10-30T15:53:43.542Z,14.90
2022-10-30T15:58:51.193Z,14.80
2022-10-30T16:03:54.418Z,14.60
2022-10-30T16:08:56.516Z,14.50
2022-10-30T16:14:05.338Z,14.30
2022-10-30T16:19:07.176Z,14.20
2022-10-30T16:24:11.784Z,14.00
2022-10-30T16:29:14.078Z,13.90
2022-10-30T16:34:37.461Z,13.80
2022-10-30T16:39:44.376Z,13.60
2022-10-30T16:44:46.958Z,13.50
2022-10-30T16:49:57.693Z,13.30
2022-10-30T16:55:31.697Z,13.20
2022-10-30T17:00:36.747Z,13.10
2022-10-30T17:05:41.001Z,13.10
2022-10-30T17:10:59.779Z,12.90
2022-10-30T17:16:25.704Z,12.80
2022-10-30T17:21:40.069Z,12.70
2022-10-30T17:26:41.849Z,12.70
2022-10-30T17:31:44.001Z,12.60
2022-10-30T17:36:47.425Z,12.50
2022-10-30T17:41:49.259Z,12.50
2022-10-30T17:46:52.068Z,12.40
2022-10-30T17:51:53.865Z,12.30
2022-10-30T17:56:56.836Z,12.10
2022-10-30T18:01:58.809Z,12.10
2022-10-30T18:07:01.022Z,12.10
2022-10-30T18:12:04.060Z,12.00
2022-10-30T18:17:06.015Z,11.90
2022-10-30T18:22:10.559Z,11.90
2022-10-30T18:27:13.106Z,11.90
2022-10-30T18:32:15.875Z,11.80
2022-10-30T18:37:20.347Z,11.80
2022-10-30T18:42:24.625Z,11.70
2022-10-30T18:47:29.229Z,11.70
2022-10-30T18:52:33.490Z,11.60
2022-10-30T18:57:36.347Z,11.60
2022-10-30T19:02:39.527Z,11.50
2022-10-30T19:07:45.115Z,11.50
2022-10-30T19:13:10.988Z,11.50
2022-10-30T19:18:21.746Z,11.40
2022-10-30T19:23:26.356Z,11.30
2022-10-30T19:28:36.877Z,11.30
2022-10-30T19:33:45.629Z,11.30
2022-10-30T19:39:03.023Z,11.20
2022-10-30T19:44:10.828Z,11.10
2022-10-30T19:49:23.793Z,11.10
2022-10-30T19:54:37.453Z,11.00
2022-10-30T19:59:42.799Z,10.90
2022-10-30T20:04:44.707Z,10.90
2022-10-30T20:09:46.511Z,10.90
2022-10-30T20:14:49.419Z,10.80
2022-10-30T20:19:51.254Z,10.90
2022-10-30T20:24:52.996Z,10.90
2022-10-30T20:29:54.790Z,10.80
2022-10-30T20:34:56.616Z,10.80
2022-10-30T20:39:58.402Z,10.70
2022-10-30T20:45:00.308Z,10.70
2022-10-30T20:50:02.201Z,10.70
2022-10-30T20:55:04.348Z,10.70
2022-10-30T21:00:08.885Z,10.70
2022-10-30T21:05:30.218Z,10.70
2022-10-30T21:10:33.533Z,10.60
2022-10-30T21:15:37.392Z,10.60
2022-10-30T21:20:41.201Z,10.50
2022-10-30T21:25:43.106Z,10.60
2022-10-30T21:30:45.075Z,10.50
2022-10-30T21:35:46.807Z,10.50
2022-10-30T21:40:56.670Z,10.50
2022-10-30T21:45:59.249Z,10.50
2022-10-30T21:51:11.724Z,10.40
2022-10-30T21:56:19.072Z,10.40
2022-10-30T22:01:23.711Z,10.30
2022-10-30T22:06:26.409Z,10.30
2022-10-30T22:11:28.865Z,10.30
2022-10-30T22:16:34.062Z,10.30
2022-10-30T22:21:35.849Z,10.20
2022-10-30T22:26:37.594Z,10.20
2022-10-30T22:31:39.366Z,10.30
2022-10-30T22:36:41.122Z,10.20
2022-10-30T22:41:43.139Z,10.20
2022-10-30T22:46:45.408Z,10.20
2022-10-30T22:51:47.311Z,10.20
2022-10-30T22:56:49.062Z,10.10
2022-10-30T23:01:50.818Z,10.10
2022-10-30T23:06:52.660Z,10.10
2022-10-30T23:11:54.413Z,10.00
2022-10-30T23:16:56.217Z,10.00
2022-10-30T23:21:59.202Z,10.00
2022-10-30T23:27:01.081Z,10.00
2022-10-30T23:32:02.850Z,10.00
2022-10-30T23:37:04.582Z,9.90
2022-10-30T23:42:06.365Z,9.90
2022-10-30T23:47:08.230Z,9.90
2022-10-30T23:52:09.974Z,9.80
2022-10-30T23:57:11.701Z,9.90
